Time;durP1;ratioP1;P1;durP2;ratioP2;P2;SDS_P1;SDS_P2;PMS_P1;PMS_P2;Temp;Humidity;BMP_temperature;BMP_pressure;BME280_temperature;BME280_humidity;BME280_pressure;Samples;Min_cycle;Max_cycle;Signal;HPM_P1;HPM_P2
2020/12/21 00:00:22;;;;;;;2.20;2.00;;;8.10;99.90;;;;;;5036813;28;20449;-70
2020/12/21 00:02:49;;;;;;;1.50;1.40;;;8.10;99.90;;;;;;5036365;28;20871;-70
2020/12/21 00:05:15;;;;;;;1.50;1.40;;;8.00;99.90;;;;;;5036712;28;20457;-70
2020/12/21 00:07:42;;;;;;;2.10;2.00;;;8.00;99.90;;;;;;5036663;28;20817;-70
2020/12/21 00:10:09;;;;;;;2.57;1.80;;;8.00;99.90;;;;;;5036638;28;20450;-70
2020/12/21 00:12:36;;;;;;;1.63;1.33;;;8.10;99.90;;;;;;5036511;28;20471;-69
2020/12/21 00:15:03;;;;;;;1.83;1.40;;;8.10;99.90;;;;;;5036468;28;20572;-70
2020/12/21 00:17:30;;;;;;;1.50;1.40;;;8.00;99.90;;;;;;5036489;28;20442;-70
2020/12/21 00:19:56;;;;;;;1.63;1.53;;;8.00;99.90;;;;;;5036453;28;20508;-70
2020/12/21 00:22:22;;;;;;;2.03;1.93;;;8.00;99.90;;;;;;5036330;28;20466;-70
2020/12/21 00:24:48;;;;;;;1.70;1.60;;;8.10;99.90;;;;;;5036406;28;20489;-70
2020/12/21 00:27:15;;;;;;;2.07;1.90;;;8.10;99.90;;;;;;5035916;28;20486;-70
2020/12/21 00:29:41;;;;;;;1.87;1.77;;;8.10;99.90;;;;;;5036256;28;20446;-70
2020/12/21 00:32:07;;;;;;;2.00;1.90;;;8.00;99.90;;;;;;5036158;28;20473;-70
2020/12/21 00:34:34;;;;;;;2.20;1.60;;;7.90;99.90;;;;;;5036096;28;20516;-70
2020/12/21 00:37:00;;;;;;;3.03;1.70;;;7.90;99.90;;;;;;5036125;28;20446;-70
2020/12/21 00:39:26;;;;;;;2.00;1.80;;;7.80;99.90;;;;;;5035186;28;20845;-70
2020/12/21 00:41:52;;;;;;;1.63;1.53;;;7.70;99.90;;;;;;5035965;28;20493;-70
2020/12/21 00:44:19;;;;;;;3.20;1.63;;;7.70;99.90;;;;;;5036008;28;20454;-70
2020/12/21 00:46:46;;;;;;;1.73;1.63;;;7.60;99.90;;;;;;5035948;28;20451;-70
2020/12/21 00:49:12;;;;;;;2.20;1.40;;;7.70;99.90;;;;;;5035940;28;20447;-70
2020/12/21 00:51:39;;;;;;;1.57;1.47;;;7.70;99.90;;;;;;5036660;28;20520;-69
2020/12/21 00:54:05;;;;;;;1.83;1.73;;;7.70;99.90;;;;;;5036067;28;20454;-70
2020/12/21 00:56:31;;;;;;;3.00;1.80;;;7.70;99.90;;;;;;5035713;28;20551;-70
2020/12/21 00:58:58;;;;;;;2.10;1.80;;;7.70;99.90;;;;;;5035719;28;20485;-70
2020/12/21 01:01:28;;;;;;;1.87;1.77;;;7.80;99.90;;;;;;5035608;28;20475;-70
2020/12/21 01:03:54;;;;;;;2.00;1.90;;;7.90;99.90;;;;;;5036453;28;20451;-70
2020/12/21 01:06:20;;;;;;;1.70;1.40;;;7.90;99.90;;;;;;5035294;28;20442;-69
2020/12/21 01:08:47;;;;;;;2.70;1.53;;;7.90;99.90;;;;;;5035533;28;20442;-70
2020/12/21 01:11:14;;;;;;;3.50;1.47;;;7.90;99.90;;;;;;5035853;28;20485;-70
2020/12/21 01:13:41;;;;;;;1.70;1.50;;;7.80;99.90;;;;;;5035157;28;20450;-70
2020/12/21 01:16:08;;;;;;;1.60;1.50;;;7.80;99.90;;;;;;5035358;28;20524;-70
2020/12/21 01:18:36;;;;;;;1.43;1.30;;;7.70;99.90;;;;;;5035358;28;20520;-70
2020/12/21 01:21:02;;;;;;;1.93;1.50;;;7.70;99.90;;;;;;5035242;28;20809;-70
2020/12/21 01:23:28;;;;;;;1.70;1.60;;;7.70;99.90;;;;;;5035209;28;20939;-70
2020/12/21 01:25:54;;;;;;;1.47;1.37;;;7.60;99.90;;;;;;5035257;28;21056;-69
2020/12/21 01:28:20;;;;;;;2.37;1.20;;;7.50;99.90;;;;;;5035256;28;20437;-70
2020/12/21 01:30:47;;;;;;;2.90;1.90;;;7.50;99.90;;;;;;5035062;28;20443;-70
2020/12/21 01:33:13;;;;;;;1.37;1.27;;;7.40;99.90;;;;;;5034759;28;20946;-70
2020/12/21 01:35:40;;;;;;;3.43;1.50;;;7.40;99.90;;;;;;5034976;28;20490;-70
2020/12/21 01:38:06;;;;;;;1.40;1.30;;;7.30;99.90;;;;;;5035017;28;20443;-70
2020/12/21 01:40:32;;;;;;;2.03;1.33;;;7.20;99.90;;;;;;5034932;28;20454;-70
2020/12/21 01:42:59;;;;;;;1.30;1.20;;;7.10;99.90;;;;;;5034825;28;20463;-70
2020/12/21 01:45:25;;;;;;;1.50;1.40;;;7.00;99.90;;;;;;5034548;28;20818;-70
2020/12/21 01:47:51;;;;;;;1.67;1.43;;;6.90;99.90;;;;;;5035149;28;20447;-70
2020/12/21 01:50:18;;;;;;;2.37;2.17;;;6.90;99.90;;;;;;5033803;28;20449;-70
2020/12/21 01:52:45;;;;;;;2.73;1.60;;;6.80;99.90;;;;;;5034671;28;20474;-70
2020/12/21 01:55:11;;;;;;;3.77;1.83;;;6.80;99.90;;;;;;5034585;28;20482;-70
2020/12/21 01:57:39;;;;;;;1.90;1.80;;;6.80;99.90;;;;;;5034603;28;20438;-70
2020/12/21 02:00:06;;;;;;;2.17;2.07;;;6.90;99.90;;;;;;5034633;28;20446;-70
2020/12/21 02:02:32;;;;;;;3.20;2.40;;;7.00;99.90;;;;;;5034367;28;20838;-70
2020/12/21 02:04:59;;;;;;;2.87;2.63;;;7.00;99.90;;;;;;5034519;28;20506;-70
2020/12/21 02:07:27;;;;;;;3.80;2.80;;;7.10;99.90;;;;;;5034447;28;20455;-69
2020/12/21 02:09:55;;;;;;;2.80;2.60;;;7.20;99.90;;;;;;5034416;28;20435;-69
2020/12/21 02:12:21;;;;;;;4.00;3.60;;;7.30;99.90;;;;;;5034312;28;20466;-70
2020/12/21 02:14:47;;;;;;;3.53;3.03;;;7.30;99.90;;;;;;5034214;28;20845;-70
2020/12/21 02:17:13;;;;;;;3.70;3.07;;;7.40;99.90;;;;;;5034235;28;20811;-69
2020/12/21 02:19:40;;;;;;;3.50;3.13;;;7.50;99.90;;;;;;5034213;28;20460;-70
2020/12/21 02:22:07;;;;;;;3.50;3.20;;;7.50;99.90;;;;;;5034092;28;20470;-70
2020/12/21 02:24:33;;;;;;;3.97;3.57;;;7.50;99.90;;;;;;5034124;28;20450;-70
2020/12/21 02:26:59;;;;;;;3.40;3.20;;;7.40;99.90;;;;;;5033860;28;20848;-70
2020/12/21 02:29:25;;;;;;;3.67;2.83;;;7.40;99.90;;;;;;5033733;28;20947;-70
2020/12/21 02:31:51;;;;;;;5.60;3.20;;;7.30;99.90;;;;;;5033887;28;20470;-70
2020/12/21 02:34:21;;;;;;;2.70;2.50;;;7.20;99.90;;;;;;5033966;28;20446;-70
2020/12/21 02:36:47;;;;;;;5.07;3.10;;;7.20;99.90;;;;;;5033855;28;20483;-70
2020/12/21 02:39:14;;;;;;;2.77;2.57;;;7.10;99.90;;;;;;5033615;28;20860;-70
2020/12/21 02:41:40;;;;;;;2.80;2.40;;;7.10;99.90;;;;;;5033748;28;20981;-70
2020/12/21 02:44:06;;;;;;;2.67;2.47;;;7.00;99.90;;;;;;5033954;28;20446;-70
2020/12/21 02:46:32;;;;;;;4.10;3.00;;;6.90;99.90;;;;;;5035025;28;20442;-70
2020/12/21 02:48:59;;;;;;;2.63;2.30;;;6.90;99.90;;;;;;5039299;28;20454;-70
2020/12/21 02:51:25;;;;;;;2.80;2.50;;;6.80;99.90;;;;;;5034027;28;20466;-70
2020/12/21 02:53:51;;;;;;;2.63;2.43;;;6.80;99.90;;;;;;5033694;28;20454;-70
2020/12/21 02:56:18;;;;;;;3.67;2.83;;;6.70;99.90;;;;;;5033233;28;20470;-70
2020/12/21 02:58:44;;;;;;;2.10;2.00;;;6.60;99.90;;;;;;5033849;28;20447;-70
2020/12/21 03:01:11;;;;;;;2.30;2.13;;;6.60;99.90;;;;;;5033244;28;20467;-70
2020/12/21 03:03:37;;;;;;;4.00;2.37;;;6.50;99.90;;;;;;5033238;28;20447;-70
2020/12/21 03:06:03;;;;;;;2.50;2.30;;;6.50;99.90;;;;;;5033803;28;20443;-70
2020/12/21 03:08:29;;;;;;;2.57;2.17;;;6.50;99.90;;;;;;5033469;28;20454;-70
2020/12/21 03:10:56;;;;;;;4.07;2.50;;;6.50;99.90;;;;;;5033629;28;20457;-70
2020/12/21 03:13:23;;;;;;;2.77;2.30;;;6.40;99.90;;;;;;5033421;28;20451;-70
2020/12/21 03:15:49;;;;;;;2.87;2.10;;;6.40;99.90;;;;;;5033026;28;21052;-70
2020/12/21 03:18:15;;;;;;;2.80;2.03;;;6.50;99.90;;;;;;5033051;28;20476;-70
2020/12/21 03:20:41;;;;;;;2.07;1.97;;;6.40;99.90;;;;;;5033267;28;20431;-70
2020/12/21 03:23:07;;;;;;;1.80;1.70;;;6.50;99.90;;;;;;5033307;28;20447;-70
2020/12/21 03:25:34;;;;;;;3.27;2.10;;;6.40;99.90;;;;;;5033074;28;20443;-69
2020/12/21 03:28:00;;;;;;;2.50;2.17;;;6.40;99.90;;;;;;5033294;28;20437;-70
2020/12/21 03:30:27;;;;;;;4.20;2.20;;;6.40;99.90;;;;;;5033230;28;20447;-70
2020/12/21 03:32:53;;;;;;;2.97;2.37;;;6.40;99.90;;;;;;5032854;28;21001;-70
2020/12/21 03:35:19;;;;;;;2.10;1.90;;;6.40;99.90;;;;;;5034190;28;20548;-70
2020/12/21 03:37:45;;;;;;;2.10;1.90;;;6.40;99.90;;;;;;5033180;28;20497;-70
2020/12/21 03:40:12;;;;;;;2.90;2.27;;;6.30;99.90;;;;;;5033141;28;20439;-70
2020/12/21 03:42:39;;;;;;;4.23;2.20;;;6.20;99.90;;;;;;5033065;28;20497;-70
2020/12/21 03:45:05;;;;;;;4.10;1.80;;;6.20;99.90;;;;;;5033107;28;20447;-70
2020/12/21 03:47:32;;;;;;;2.83;2.10;;;6.10;99.90;;;;;;5033079;28;20446;-70
2020/12/21 03:49:58;;;;;;;2.90;2.00;;;6.00;99.90;;;;;;5033291;28;20443;-70
2020/12/21 03:52:24;;;;;;;2.30;2.10;;;6.00;99.90;;;;;;5032648;28;21011;-70
2020/12/21 03:54:51;;;;;;;2.00;1.80;;;6.00;99.90;;;;;;5032623;28;20818;-70
2020/12/21 03:57:17;;;;;;;2.43;2.23;;;6.10;99.90;;;;;;5032962;28;20450;-70
2020/12/21 03:59:43;;;;;;;4.80;2.13;;;6.20;99.90;;;;;;5032970;28;20496;-70
2020/12/21 04:02:09;;;;;;;5.30;2.70;;;6.30;99.90;;;;;;5032882;28;20463;-70
2020/12/21 04:04:36;;;;;;;2.43;2.23;;;6.30;99.90;;;;;;5032669;28;20962;-70
2020/12/21 04:07:02;;;;;;;2.87;2.60;;;6.40;99.90;;;;;;5032901;28;20496;-70
2020/12/21 04:09:28;;;;;;;2.83;2.53;;;6.30;99.90;;;;;;5032876;28;20447;-70
2020/12/21 04:11:55;;;;;;;2.67;2.47;;;6.20;99.90;;;;;;5032962;28;20458;-70
2020/12/21 04:14:21;;;;;;;4.43;2.77;;;6.20;99.90;;;;;;5035086;28;20442;-70
2020/12/21 04:16:47;;;;;;;3.07;2.77;;;6.20;99.90;;;;;;5036147;28;20478;-70
2020/12/21 04:19:13;;;;;;;4.20;2.97;;;6.20;99.90;;;;;;5036143;28;20860;-70
2020/12/21 04:21:40;;;;;;;5.40;3.10;;;6.20;99.90;;;;;;5036394;28;20462;-70
2020/12/21 04:24:06;;;;;;;5.47;3.10;;;6.20;99.90;;;;;;5036369;28;20439;-69
2020/12/21 04:26:32;;;;;;;7.57;3.33;;;6.20;99.90;;;;;;5036189;28;20483;-70
2020/12/21 04:28:58;;;;;;;2.70;2.50;;;6.20;99.90;;;;;;5036083;28;20461;-70
2020/12/21 04:31:25;;;;;;;10.80;4.27;;;6.20;99.90;;;;;;5036225;28;20466;-70
2020/12/21 04:33:51;;;;;;;3.50;3.20;;;6.30;99.90;;;;;;5036234;28;20504;-70
2020/12/21 04:36:17;;;;;;;3.60;3.30;;;6.30;99.90;;;;;;5036931;28;20474;-70
2020/12/21 04:38:44;;;;;;;4.87;3.90;;;6.30;99.90;;;;;;5036132;28;20516;-70
2020/12/21 04:41:11;;;;;;;3.93;3.50;;;6.30;99.90;;;;;;5036018;28;20467;-70
2020/12/21 04:43:38;;;;;;;4.83;3.63;;;6.30;99.90;;;;;;5036049;28;20447;-70
2020/12/21 04:46:06;;;;;;;5.40;3.30;;;6.30;99.90;;;;;;5035707;28;20446;-69
2020/12/21 04:48:38;;;;;;;4.80;3.63;;;6.20;99.90;;;;;;5035926;28;20443;-70
2020/12/21 04:51:06;;;;;;;4.50;3.67;;;6.20;99.90;;;;;;5035556;28;20840;-69
2020/12/21 04:53:33;;;;;;;4.07;3.53;;;6.30;99.90;;;;;;5036085;28;20446;-70
2020/12/21 04:56:01;;;;;;;4.00;3.40;;;6.20;99.90;;;;;;5035736;28;20520;-70
2020/12/21 04:58:27;;;;;;;3.80;3.23;;;6.20;99.90;;;;;;5035443;28;20821;-70
2020/12/21 05:00:53;;;;;;;4.77;3.80;;;6.30;99.90;;;;;;5035407;28;20453;-70
2020/12/21 05:03:19;;;;;;;4.77;3.40;;;6.30;99.90;;;;;;5035751;28;20475;-70
2020/12/21 05:05:45;;;;;;;4.00;2.83;;;6.30;99.90;;;;;;5035357;28;20930;-70
2020/12/21 05:08:14;;;;;;;3.80;3.17;;;6.30;99.90;;;;;;5035577;28;20455;-70
2020/12/21 05:10:41;;;;;;;4.47;2.93;;;6.40;99.90;;;;;;5035701;28;20449;-70
2020/12/21 05:13:11;;;;;;;4.53;3.03;;;6.40;99.90;;;;;;5035195;28;20826;-70
2020/12/21 05:15:37;;;;;;;8.40;3.40;;;6.50;99.90;;;;;;5035353;28;20497;-69
2020/12/21 05:18:05;;;;;;;4.40;3.50;;;6.60;99.90;;;;;;5035104;28;20918;-70
2020/12/21 05:20:32;;;;;;;3.63;2.90;;;6.60;99.90;;;;;;5035371;28;20534;-70
2020/12/21 05:22:58;;;;;;;5.10;3.37;;;6.70;99.90;;;;;;5035218;28;20521;-70
2020/12/21 05:25:24;;;;;;;4.13;2.93;;;6.60;99.90;;;;;;5035159;28;20443;-70
2020/12/21 05:27:51;;;;;;;6.10;3.67;;;6.60;99.90;;;;;;5035204;28;20451;-70
2020/12/21 05:30:18;;;;;;;3.60;3.00;;;6.60;99.90;;;;;;5035115;28;20496;-70
2020/12/21 05:32:44;;;;;;;4.80;3.37;;;6.60;99.90;;;;;;5034687;28;20829;-70
2020/12/21 05:35:11;;;;;;;5.83;3.40;;;6.60;99.90;;;;;;5035513;28;20482;-70
2020/12/21 05:37:39;;;;;;;4.37;3.60;;;6.70;99.90;;;;;;5034990;28;20446;-70
2020/12/21 05:40:07;;;;;;;5.53;4.00;;;6.70;99.90;;;;;;5034947;28;20525;-70
2020/12/21 05:42:35;;;;;;;4.03;3.63;;;6.60;99.90;;;;;;5034759;28;20589;-70
2020/12/21 05:45:04;;;;;;;4.07;3.67;;;6.60;99.90;;;;;;5034823;28;20537;-70
2020/12/21 05:47:31;;;;;;;4.77;3.80;;;6.60;99.90;;;;;;5034842;28;20442;-70
2020/12/21 05:49:58;;;;;;;4.93;3.60;;;6.50;99.90;;;;;;5034429;28;20443;-70
2020/12/21 05:52:30;;;;;;;3.93;3.53;;;6.50;99.90;;;;;;5034629;28;20467;-70
2020/12/21 05:54:56;;;;;;;8.10;3.30;;;6.40;99.90;;;;;;5034587;28;20453;-70
2020/12/21 05:57:27;;;;;;;3.70;3.23;;;6.40;99.90;;;;;;5034299;28;20450;-70
2020/12/21 05:59:54;;;;;;;3.10;2.57;;;6.40;99.90;;;;;;5034540;28;20518;-69
2020/12/21 06:02:20;;;;;;;3.47;2.80;;;6.40;99.90;;;;;;5034286;28;20540;-69
2020/12/21 06:04:49;;;;;;;3.10;2.70;;;6.40;99.90;;;;;;5034457;28;20434;-70
2020/12/21 06:07:22;;;;;;;3.53;2.80;;;6.40;99.90;;;;;;5034429;28;20451;-70
2020/12/21 06:09:50;;;;;;;3.67;2.57;;;6.50;99.90;;;;;;5034987;28;20426;-69
2020/12/21 06:12:20;;;;;;;2.63;2.43;;;6.60;99.90;;;;;;5034230;28;20455;-70
2020/12/21 06:14:48;;;;;;;4.47;3.27;;;6.70;99.90;;;;;;5034567;28;20445;-70
2020/12/21 06:17:15;;;;;;;5.03;3.10;;;6.70;99.90;;;;;;5034236;28;20488;-70
2020/12/21 06:19:41;;;;;;;4.03;3.17;;;6.70;99.90;;;;;;5033921;28;20454;-70
2020/12/21 06:22:08;;;;;;;5.53;3.43;;;6.70;99.90;;;;;;5034110;28;20466;-70
2020/12/21 06:24:38;;;;;;;3.47;3.00;;;6.70;99.90;;;;;;5034109;28;20454;-70
2020/12/21 06:27:13;;;;;;;4.93;3.50;;;6.70;99.90;;;;;;5033920;28;20485;-70
2020/12/21 06:29:40;;;;;;;3.47;3.17;;;6.70;99.90;;;;;;5034149;28;20860;-69
2020/12/21 06:32:07;;;;;;;4.33;3.33;;;6.70;99.90;;;;;;5033908;28;20470;-70
2020/12/21 06:34:35;;;;;;;5.77;3.60;;;6.60;99.90;;;;;;5033961;28;20446;-70
2020/12/21 06:37:02;;;;;;;6.57;3.97;;;6.60;99.90;;;;;;5033387;28;20483;-70
2020/12/21 06:39:31;;;;;;;4.10;3.80;;;6.60;99.90;;;;;;5033891;28;20446;-70
2020/12/21 06:42:05;;;;;;;7.50;4.27;;;6.50;99.90;;;;;;5033702;28;20561;-69
2020/12/21 06:44:32;;;;;;;4.97;4.03;;;6.40;99.90;;;;;;5034339;28;20456;-69
2020/12/21 06:46:59;;;;;;;5.70;4.00;;;6.50;99.90;;;;;;5033788;28;20443;-69
2020/12/21 06:49:26;;;;;;;8.17;3.97;;;6.60;99.90;;;;;;5033741;28;20493;-70
2020/12/21 06:51:53;;;;;;;5.13;3.73;;;6.50;99.90;;;;;;5033606;28;20459;-70
2020/12/21 06:54:19;;;;;;;3.03;2.83;;;6.40;99.90;;;;;;5033940;28;20446;-70
2020/12/21 06:56:48;;;;;;;3.43;2.87;;;6.30;99.90;;;;;;5033493;28;20478;-69
2020/12/21 06:59:15;;;;;;;3.83;2.97;;;6.30;99.90;;;;;;5033536;28;20443;-70
2020/12/21 07:01:43;;;;;;;4.90;3.37;;;6.40;99.90;;;;;;5033708;28;20474;-69
2020/12/21 07:04:11;;;;;;;4.57;3.30;;;6.40;99.90;;;;;;5033497;28;20443;-70
2020/12/21 07:06:37;;;;;;;4.20;3.40;;;6.40;99.90;;;;;;5033432;28;20557;-70
2020/12/21 07:09:04;;;;;;;5.60;3.13;;;6.40;99.90;;;;;;5033466;28;20497;-69
2020/12/21 07:11:31;;;;;;;4.37;3.63;;;6.40;99.90;;;;;;5033035;28;20470;-70
2020/12/21 07:13:58;;;;;;;4.40;3.23;;;6.40;99.90;;;;;;5033396;28;20450;-70
2020/12/21 07:16:25;;;;;;;4.90;2.93;;;6.30;99.90;;;;;;5032956;28;20481;-69
2020/12/21 07:18:51;;;;;;;3.83;2.90;;;6.30;99.90;;;;;;5033509;28;20443;-70
2020/12/21 07:21:17;;;;;;;5.13;3.17;;;6.30;99.90;;;;;;5033269;28;20469;-70
2020/12/21 07:23:45;;;;;;;4.10;2.90;;;6.30;99.90;;;;;;5032992;28;20481;-70
2020/12/21 07:26:13;;;;;;;4.50;3.23;;;6.40;99.90;;;;;;5033250;28;20487;-70
2020/12/21 07:28:39;;;;;;;3.77;3.40;;;6.40;99.90;;;;;;5032980;28;20453;-70
2020/12/21 07:31:09;;;;;;;4.80;3.17;;;6.20;99.90;;;;;;5033339;28;20461;-70
2020/12/21 07:33:47;;;;;;;4.93;3.07;;;6.20;99.90;;;;;;5033146;28;20450;-70
2020/12/21 07:36:13;;;;;;;4.40;3.13;;;6.20;99.90;;;;;;5033368;28;20562;-70
2020/12/21 07:38:40;;;;;;;3.50;3.00;;;6.20;99.90;;;;;;5033156;28;20439;-70
2020/12/21 07:41:06;;;;;;;9.13;3.43;;;6.10;99.90;;;;;;5033021;28;20466;-70
2020/12/21 07:43:36;;;;;;;2.87;2.60;;;6.10;99.90;;;;;;5033333;28;20442;-70
2020/12/21 07:46:05;;;;;;;3.30;2.70;;;6.20;99.90;;;;;;5033036;28;20560;-70
2020/12/21 07:48:33;;;;;;;3.33;2.70;;;6.20;99.90;;;;;;5033778;28;21099;-70
2020/12/21 07:51:04;;;;;;;7.83;2.97;;;6.20;99.90;;;;;;5037229;28;20463;-70
2020/12/21 07:53:38;;;;;;;6.70;3.53;;;6.20;99.90;;;;;;5037435;28;20446;-69
2020/12/21 07:56:04;;;;;;;5.83;2.70;;;6.30;99.90;;;;;;5036792;28;20489;-70
2020/12/21 07:58:35;;;;;;;4.30;2.40;;;6.30;99.90;;;;;;5036877;28;20427;-70
2020/12/21 08:01:01;;;;;;;4.00;3.27;;;6.30;99.90;;;;;;5036761;28;20470;-70
2020/12/21 08:03:30;;;;;;;4.17;2.93;;;6.30;99.90;;;;;;5036792;28;20435;-69
2020/12/21 08:06:07;;;;;;;2.87;2.60;;;6.50;99.90;;;;;;5036695;28;20442;-69
2020/12/21 08:08:34;;;;;;;4.03;2.93;;;6.40;99.90;;;;;;5036689;28;20431;-69
2020/12/21 08:11:00;;;;;;;4.07;3.13;;;6.40;99.90;;;;;;5036628;28;20466;-70
2020/12/21 08:13:26;;;;;;;4.70;3.40;;;6.40;99.90;;;;;;5036692;28;20802;-70
2020/12/21 08:15:52;;;;;;;4.10;3.17;;;6.40;99.90;;;;;;5037106;28;20462;-69
2020/12/21 08:18:19;;;;;;;4.50;3.43;;;6.40;99.90;;;;;;5036278;28;20812;-70
2020/12/21 08:20:51;;;;;;;3.17;2.87;;;6.50;99.90;;;;;;5036439;28;20430;-69
2020/12/21 08:23:26;;;;;;;3.40;3.00;;;6.60;99.90;;;;;;5036476;28;20437;-70
2020/12/21 08:25:53;;;;;;;2.73;2.30;;;6.60;99.90;;;;;;5035963;28;20891;-69
2020/12/21 08:28:31;;;;;;;4.70;2.70;;;6.60;99.90;;;;;;5036108;28;20434;-69
2020/12/21 08:31:12;;;;;;;3.73;3.10;;;6.60;99.90;;;;;;5036204;28;20489;-69
2020/12/21 08:33:41;;;;;;;4.17;3.00;;;6.70;99.90;;;;;;5035968;28;20918;-69
2020/12/21 08:36:22;;;;;;;3.83;3.30;;;6.80;99.90;;;;;;5036150;28;20467;-70
2020/12/21 08:38:50;;;;;;;3.20;2.80;;;6.80;99.90;;;;;;5036219;28;20427;-70
2020/12/21 08:41:17;;;;;;;2.97;2.70;;;6.70;99.90;;;;;;5036087;28;20467;-69
2020/12/21 08:43:43;;;;;;;3.47;3.10;;;6.80;99.90;;;;;;5036116;28;20481;-70
2020/12/21 08:46:11;;;;;;;4.67;2.70;;;6.90;99.90;;;;;;5036304;28;20419;-70
2020/12/21 08:48:39;;;;;;;3.33;2.67;;;6.90;99.90;;;;;;5036015;28;20426;-69
2020/12/21 08:51:05;;;;;;;4.63;3.10;;;6.90;99.90;;;;;;5035899;28;20501;-69
2020/12/21 08:53:31;;;;;;;3.90;3.13;;;6.90;99.90;;;;;;5035898;28;20434;-70
2020/12/21 08:55:58;;;;;;;4.63;2.80;;;6.90;99.90;;;;;;5035791;28;20458;-70
2020/12/21 08:58:25;;;;;;;4.90;3.27;;;6.90;99.90;;;;;;5035820;28;20438;-70
2020/12/21 09:00:51;;;;;;;5.10;3.10;;;6.90;99.90;;;;;;5035253;28;20430;-70
2020/12/21 09:03:17;;;;;;;4.63;3.33;;;6.90;99.90;;;;;;5035861;28;20435;-70
2020/12/21 09:05:43;;;;;;;4.30;3.87;;;6.90;99.90;;;;;;5035690;28;20427;-70
2020/12/21 09:08:09;;;;;;;3.97;3.53;;;7.00;99.90;;;;;;5036321;28;20458;-70
2020/12/21 09:10:35;;;;;;;4.10;3.80;;;7.00;99.90;;;;;;5035576;28;20789;-70
2020/12/21 09:13:02;;;;;;;7.90;4.37;;;7.10;99.90;;;;;;5035469;28;20477;-70
2020/12/21 09:15:29;;;;;;;3.93;3.47;;;7.10;99.90;;;;;;5035444;28;20467;-70
2020/12/21 09:17:55;;;;;;;4.97;3.80;;;7.20;99.90;;;;;;5035419;28;20435;-70
2020/12/21 09:20:21;;;;;;;5.33;4.00;;;7.20;99.90;;;;;;5035407;28;20438;-70
2020/12/21 09:22:47;;;;;;;4.83;3.90;;;7.20;99.90;;;;;;5035212;28;20471;-70
2020/12/21 09:25:16;;;;;;;4.90;3.80;;;7.20;99.90;;;;;;5035243;28;20465;-70
2020/12/21 09:27:42;;;;;;;3.83;3.50;;;7.20;99.90;;;;;;5033886;28;20506;-71
2020/12/21 09:30:09;;;;;;;4.87;3.50;;;7.30;99.90;;;;;;5033908;28;20427;-71
2020/12/21 09:32:35;;;;;;;3.83;3.40;;;7.30;99.90;;;;;;5034078;28;20470;-70
2020/12/21 09:35:02;;;;;;;11.27;4.40;;;7.30;99.90;;;;;;5034367;28;20431;-71
2020/12/21 09:37:28;;;;;;;5.37;3.20;;;7.30;99.90;;;;;;5034089;28;20474;-70
2020/12/21 09:39:54;;;;;;;3.93;3.30;;;7.40;99.90;;;;;;5034045;28;20439;-70
2020/12/21 09:42:20;;;;;;;6.60;4.30;;;7.40;99.90;;;;;;5033911;28;20470;-71
2020/12/21 09:44:49;;;;;;;5.00;3.57;;;7.50;99.90;;;;;;5033666;28;20423;-70
2020/12/21 09:47:17;;;;;;;5.53;4.00;;;7.60;99.90;;;;;;5033887;28;20438;-70
2020/12/21 09:49:43;;;;;;;3.50;2.67;;;7.60;99.90;;;;;;5033614;28;20427;-70
2020/12/21 09:52:09;;;;;;;4.03;2.70;;;7.60;99.90;;;;;;5033771;28;20477;-70
2020/12/21 09:54:35;;;;;;;8.23;3.50;;;7.60;99.90;;;;;;5033756;28;20427;-71
2020/12/21 09:57:02;;;;;;;5.97;2.73;;;7.70;99.90;;;;;;5033793;28;20467;-70
2020/12/21 09:59:28;;;;;;;3.33;2.87;;;7.80;99.90;;;;;;5034037;28;20465;-63
2020/12/21 10:01:54;;;;;;;5.80;2.93;;;7.90;99.90;;;;;;5033631;28;20522;-64
2020/12/21 10:04:21;;;;;;;8.13;2.90;;;7.90;99.90;;;;;;5033412;28;20849;-64
2020/12/21 10:06:48;;;;;;;2.50;2.20;;;8.00;99.90;;;;;;5033580;28;20442;-64
2020/12/21 10:09:14;;;;;;;4.93;2.60;;;8.00;99.90;;;;;;5033273;28;20989;-64
2020/12/21 10:11:41;;;;;;;3.10;2.40;;;8.00;99.90;;;;;;5032546;28;20515;-64
2020/12/21 10:14:07;;;;;;;2.33;2.13;;;8.20;99.90;;;;;;5033217;28;20788;-64
2020/12/21 10:16:33;;;;;;;3.70;2.47;;;8.20;99.90;;;;;;5033408;28;20467;-64
2020/12/21 10:18:59;;;;;;;2.53;2.30;;;8.20;99.90;;;;;;5033441;28;20431;-65
2020/12/21 10:21:26;;;;;;;3.50;2.27;;;8.10;99.90;;;;;;5033321;28;20473;-64
2020/12/21 10:23:53;;;;;;;3.23;1.90;;;8.10;99.90;;;;;;5033334;28;20435;-64
2020/12/21 10:26:19;;;;;;;2.00;1.83;;;8.10;99.90;;;;;;5015036;28;534629;-64
2020/12/21 10:28:45;;;;;;;2.40;1.83;;;8.20;99.90;;;;;;5034086;28;20200;-64
2020/12/21 10:31:11;;;;;;;4.43;2.50;;;8.20;99.90;;;;;;5033997;28;20473;-64
2020/12/21 10:33:37;;;;;;;3.37;2.10;;;8.30;99.90;;;;;;5034009;28;20423;-64
2020/12/21 10:36:03;;;;;;;2.47;2.27;;;8.20;99.90;;;;;;5033916;28;20466;-64
2020/12/21 10:38:31;;;;;;;3.20;2.10;;;8.20;99.90;;;;;;5033911;28;20442;-64
2020/12/21 10:40:58;;;;;;;2.87;2.63;;;8.20;99.90;;;;;;5033813;28;20428;-64
2020/12/21 10:43:24;;;;;;;2.70;1.93;;;8.10;99.90;;;;;;5033870;28;20430;-64
2020/12/21 10:45:50;;;;;;;2.70;2.17;;;8.20;99.90;;;;;;5033837;28;20434;-64
2020/12/21 10:48:16;;;;;;;2.47;2.00;;;8.30;99.90;;;;;;5033810;28;20431;-64
2020/12/21 10:50:45;;;;;;;2.10;1.90;;;8.20;99.90;;;;;;5034405;28;20455;-64
2020/12/21 10:53:11;;;;;;;4.03;2.20;;;8.20;99.90;;;;;;5033774;28;20431;-64
2020/12/21 10:55:38;;;;;;;5.90;2.37;;;8.20;99.90;;;;;;5033838;28;20463;-64
2020/12/21 10:58:04;;;;;;;2.23;2.00;;;8.20;99.90;;;;;;5033256;28;20898;-64
2020/12/21 11:00:31;;;;;;;2.87;2.60;;;8.20;99.90;;;;;;5033636;28;20442;-64
2020/12/21 11:02:57;;;;;;;2.90;1.90;;;8.20;99.90;;;;;;5033511;28;20470;-64
2020/12/21 11:05:23;;;;;;;3.87;2.03;;;8.30;99.90;;;;;;5033257;28;20972;-64
2020/12/21 11:07:49;;;;;;;4.03;2.37;;;8.40;99.90;;;;;;5033516;28;20435;-64
2020/12/21 11:10:15;;;;;;;3.00;1.47;;;8.30;99.90;;;;;;5033518;28;20438;-64
2020/12/21 11:12:42;;;;;;;4.10;1.90;;;8.40;99.90;;;;;;5033348;28;20462;-64
2020/12/21 11:15:08;;;;;;;2.03;1.93;;;8.50;99.90;;;;;;5033460;28;20435;-64
2020/12/21 11:17:35;;;;;;;2.20;1.80;;;8.60;99.90;;;;;;5033594;28;20467;-64
2020/12/21 11:20:02;;;;;;;2.47;1.97;;;8.50;99.90;;;;;;5033307;28;20435;-63
2020/12/21 11:22:28;;;;;;;2.63;2.10;;;8.60;99.90;;;;;;5033066;28;20562;-64
2020/12/21 11:24:54;;;;;;;4.27;2.33;;;8.60;99.90;;;;;;5033332;28;20431;-64
2020/12/21 11:27:20;;;;;;;1.87;1.77;;;8.50;99.90;;;;;;5032908;28;20474;-64
2020/12/21 11:29:47;;;;;;;3.13;2.20;;;8.50;99.90;;;;;;5033026;28;20431;-64
2020/12/21 11:32:14;;;;;;;2.67;2.43;;;8.50;99.90;;;;;;5033257;28;20471;-63
2020/12/21 11:34:40;;;;;;;3.77;3.00;;;8.60;99.90;;;;;;5033308;28;20481;-64
2020/12/21 11:37:06;;;;;;;2.00;1.90;;;8.60;99.90;;;;;;5032855;28;20974;-64
2020/12/21 11:39:32;;;;;;;2.70;2.50;;;8.50;99.90;;;;;;5033196;28;20443;-64
2020/12/21 11:41:58;;;;;;;2.70;2.50;;;8.70;99.90;;;;;;5033088;28;20466;-64
2020/12/21 11:44:24;;;;;;;2.10;1.90;;;8.70;99.90;;;;;;5033265;28;20478;-64
2020/12/21 11:46:51;;;;;;;3.53;2.70;;;8.70;99.90;;;;;;5033599;28;20427;-64
2020/12/21 11:49:18;;;;;;;3.30;2.60;;;8.70;99.90;;;;;;5033256;28;20431;-64
2020/12/21 11:51:44;;;;;;;2.70;2.40;;;8.70;99.90;;;;;;5033868;28;20477;-65
2020/12/21 11:54:10;;;;;;;3.87;2.93;;;8.80;99.90;;;;;;5033106;28;20435;-64
2020/12/21 11:56:36;;;;;;;2.60;2.40;;;8.80;99.90;;;;;;5032996;28;20462;-64
2020/12/21 11:59:02;;;;;;;4.43;2.43;;;8.80;99.90;;;;;;5033126;28;20542;-64
2020/12/21 12:01:28;;;;;;;2.50;2.30;;;8.80;99.90;;;;;;5032983;28;20467;-64
2020/12/21 12:03:56;;;;;;;4.93;3.40;;;8.80;99.90;;;;;;5032982;28;20493;-64
2020/12/21 12:06:25;;;;;;;3.20;3.00;;;8.80;99.90;;;;;;5032833;28;20477;-64
2020/12/21 12:08:53;;;;;;;5.70;2.97;;;8.80;99.90;;;;;;5032989;28;20897;-64
2020/12/21 12:11:23;;;;;;;3.33;2.97;;;8.80;99.90;;;;;;5032872;28;20513;-64
2020/12/21 12:13:50;;;;;;;3.00;2.80;;;8.70;99.90;;;;;;5032558;28;20797;-64
2020/12/21 12:16:20;;;;;;;3.93;2.90;;;8.70;99.90;;;;;;5032800;28;20463;-64
2020/12/21 12:18:46;;;;;;;3.70;3.03;;;8.70;99.90;;;;;;5032863;28;20521;-64
2020/12/21 12:21:20;;;;;;;4.43;3.03;;;8.70;99.90;;;;;;5032761;28;20505;-64
2020/12/21 12:23:47;;;;;;;4.70;3.83;;;8.70;99.90;;;;;;5032812;28;20462;-64
2020/12/21 12:26:16;;;;;;;3.57;3.27;;;8.70;99.90;;;;;;5032613;28;20482;-64
2020/12/21 12:28:42;;;;;;;6.07;4.00;;;8.70;99.90;;;;;;5032709;28;20447;-64
2020/12/21 12:31:09;;;;;;;5.90;4.03;;;8.60;99.90;;;;;;5033109;28;20462;-64
2020/12/21 12:33:35;;;;;;;3.73;3.00;;;8.60;99.90;;;;;;5032698;28;20435;-64
2020/12/21 12:36:01;;;;;;;4.47;3.00;;;8.50;99.90;;;;;;5035754;28;20462;-64
2020/12/21 12:38:28;;;;;;;4.00;3.10;;;8.70;99.90;;;;;;5036264;28;20438;-64
2020/12/21 12:40:54;;;;;;;2.97;2.60;;;8.70;99.90;;;;;;5036097;28;20435;-64
2020/12/21 12:43:20;;;;;;;3.57;3.03;;;8.80;99.90;;;;;;5035896;28;20506;-64
2020/12/21 12:45:47;;;;;;;2.90;2.70;;;8.90;99.90;;;;;;5035795;28;20914;-64
2020/12/21 12:48:13;;;;;;;5.43;2.83;;;9.10;99.90;;;;;;5036023;28;20431;-64
2020/12/21 12:50:39;;;;;;;3.43;3.00;;;9.10;99.90;;;;;;5035951;28;20485;-64
2020/12/21 12:53:05;;;;;;;3.40;3.10;;;9.10;99.90;;;;;;5035966;28;20430;-64
2020/12/21 12:55:33;;;;;;;4.20;2.80;;;9.10;99.90;;;;;;5036044;28;20435;-64